ADDS METAR Data INFO
IDs: Format: Raw Decoded Include TAF

Data at: 1846 UTC 16 Dec 2017

KPRG 161835Z AUTO 21015KT 10SM CLR 10/00 A2998 RMK AO2 T00991003
KPRG 161815Z AUTO 23016KT 10SM CLR 09/00 A2999 RMK AO2 T00941005
KPRG 161755Z AUTO 22017KT 10SM CLR 09/M01 A2999 RMK AO2 T00901006 10090 20000
KPRG 161735Z AUTO 22017G21KT 10SM CLR 09/M01 A2999 RMK AO2 T00851007
KPRG 161715Z AUTO 21014KT 10SM CLR 08/M01 A3000 RMK AO2 T00771008
KPRG 161655Z AUTO 21019G22KT 10SM CLR 07/M01 A3001 RMK AO2 T00711011
KPRG 161635Z AUTO 22018G23KT 10SM CLR 07/M01 A3001 RMK AO2 T00681010
KPRG 161615Z AUTO 21016G22KT 10SM CLR 06/M01 A3002 RMK AO2 T00591011
KPRG 161555Z AUTO 21018G23KT 10SM CLR 05/M01 A3002 RMK AO2 T00501014
KPRG 161535Z AUTO 21019G23KT 10SM CLR 05/M01 A3001 RMK AO2 T00451015
KPRG 161515Z AUTO 21018KT 10SM CLR 04/M02 A3001 RMK AO2 T00361017
KPRG 161455Z AUTO 21016G21KT 10SM CLR 03/M02 A3000 RMK AO2 T00311018
KPRG 161435Z AUTO 21018G23KT 10SM CLR 02/M02 A3000 RMK AO2 T00231021
KPRG 161415Z AUTO 21019KT 10SM CLR 02/M02 A2999 RMK AO2 T00161023
KPRG 161355Z AUTO 21017KT 10SM CLR 01/M02 A2999 RMK AO2 T00101025
KPRG 161335Z AUTO 20017G22KT 10SM CLR 01/M03 A2999 RMK AO2 T00061026
KPRG 161315Z AUTO 20017G21KT 10SM CLR 01/M03 A2999 RMK AO2 T00051028
KPRG 161255Z AUTO 20016KT 10SM CLR 00/M03 A2998 RMK AO2 T00031030
KPRG 161235Z AUTO 20015KT 10SM CLR 00/M03 A2998 RMK AO2 T00001031
KPRG 161215Z AUTO 20014KT 10SM CLR 00/M03 A2999 RMK AO2 T00001032
KPRG 161155Z AUTO 20014KT 10SM CLR 00/M03 A2999 RMK AO2 T00001032 10011 21005
KPRG 161135Z AUTO 20013KT 10SM CLR 00/M03 A2998 RMK AO2 T00001033
KPRG 161115Z AUTO 20012KT 10SM CLR 00/M03 A2999 RMK AO2 T00001035
KPRG 161055Z AUTO 20011KT 10SM CLR 00/M03 A2999 RMK AO2 T10021035
KPRG 161035Z AUTO 18010KT 10SM CLR 00/M03 A2999 RMK AO2 T10051035
KPRG 161015Z AUTO 19010KT 10SM CLR 00/M03 A2999 RMK AO2 T10031035
KPRG 160955Z AUTO 19009KT 10SM CLR 00/M04 A3000 RMK AO2 T10021036
KPRG 160935Z AUTO 19011KT 10SM CLR 00/M03 A3000 RMK AO2 T10011035
KPRG 160915Z AUTO 19010KT 10SM CLR 00/M04 A3001 RMK AO2 T10021037
KPRG 160855Z AUTO 19011KT 10SM CLR 00/M04 A3002 RMK AO2 T00001038
KPRG 160835Z AUTO 19011KT 10SM SCT110 00/M04 A3002 RMK AO2 T00041037
KPRG 160815Z AUTO 20013KT 10SM OVC110 01/M03 A3002 RMK AO2 T00101035
KPRG 160755Z AUTO 20011KT 10SM OVC110 01/M03 A3003 RMK AO2 T00101033
KPRG 160735Z AUTO 20012KT 10SM OVC110 01/M03 A3003 RMK AO2 T00101035
KPRG 160715Z AUTO 20012KT 10SM OVC100 01/M03 A3003 RMK AO2 T00061035
KPRG 160655Z AUTO 21012KT 10SM OVC100 01/M04 A3003 RMK AO2 T00061036
KPRG 160635Z AUTO 21012KT 10SM OVC100 01/M04 A3004 RMK AO2 T00051037
KPRG 160615Z AUTO 21012KT 10SM OVC110 00/M04 A3004 RMK AO2 T00031037
KPRG 160555Z AUTO 21010KT 10SM BKN100 00/M04 A3004 RMK AO2 T10051043 10010 21011 400161055
KPRG 160535Z AUTO 21010KT 10SM SCT100 00/M04 A3005 RMK AO2 T10051045
KPRG 160515Z AUTO 21010KT 10SM SCT100 M01/M05 A3006 RMK AO2 T10061046
KPRG 160455Z AUTO 21008KT 10SM CLR M01/M05 A3005 RMK AO2 T10111050
KPRG 160435Z AUTO 21008KT 10SM CLR M01/M05 A3005 RMK AO2 T10111048
KPRG 160415Z AUTO 21009KT 10SM CLR M01/M05 A3005 RMK AO2 T10091049
KPRG 160355Z AUTO 21009KT 10SM CLR M01/M05 A3006 RMK AO2 T10061047
KPRG 160335Z AUTO 22009KT 10SM CLR 00/M05 A3005 RMK AO2 T10051046
KPRG 160315Z AUTO 21011KT 10SM CLR 00/M05 A3005 RMK AO2 T10011046
KPRG 160255Z AUTO 21011KT 10SM SCT060 00/M05 A3004 RMK AO2 T00001046
KPRG 160235Z AUTO 21012KT 10SM OVC060 01/M04 A3004 RMK AO2 T00051045
KPRG 160215Z AUTO 21009KT 10SM OVC060 01/M04 A3005 RMK AO2 T00101045
KPRG 160155Z AUTO 21008KT 10SM OVC060 01/M04 A3005 RMK AO2 T00081045
KPRG 160135Z AUTO 20007KT 10SM OVC060 01/M05 A3005 RMK AO2 T00061047
KPRG 160115Z AUTO 20007KT 10SM OVC060 01/M05 A3005 RMK AO2 T00061049
KPRG 160055Z AUTO 21008KT 10SM OVC060 01/M05 A3005 RMK AO2 T00061050
KPRG 160035Z AUTO 21009KT 10SM OVC060 01/M05 A3005 RMK AO2 T00061050
KPRG 160015Z AUTO 21010KT 10SM OVC060 01/M05 A3005 RMK AO2 T00051051
KPRG 152355Z AUTO 21008KT 10SM OVC060 00/M05 A3005 RMK AO2 T00021053 10016 20000
KPRG 152335Z AUTO 21007KT 10SM OVC060 00/M05 A3005 RMK AO2 T00021055
KPRG 152315Z AUTO 22006KT 10SM OVC060 00/M05 A3005 RMK AO2 T00031055
KPRG 152255Z AUTO 22006KT 10SM OVC060 01/M06 A3005 RMK AO2 T00051058
KPRG 152235Z AUTO 23006KT 10SM OVC060 01/M06 A3004 RMK AO2 T00051058
KPRG 152215Z AUTO 24008KT 10SM OVC060 01/M06 A3004 RMK AO2 T00081061
KPRG 152155Z AUTO 25009KT 10SM BKN060 01/M06 A3004 RMK AO2 T00101062
KPRG 152135Z AUTO 26009KT 10SM SCT060 01/M06 A3004 RMK AO2 T00121065
KPRG 152115Z AUTO 27012KT 10SM SCT039 01/M06 A3003 RMK AO2 T00141065
KPRG 152055Z AUTO 27014G19KT 10SM SCT037 02/M06 A3003 RMK AO2 T00151065
KPRG 152035Z AUTO 27011KT 10SM BKN035 01/M07 A3003 RMK AO2 T00131066
KPRG 152015Z AUTO 26014G20KT 10SM BKN035 01/M06 A3003 RMK AO2 T00111064
KPRG 151955Z AUTO 27013KT 10SM BKN035 01/M06 A3003 RMK AO2 T00131060
KPRG 151935Z AUTO 29015G23KT 10SM OVC035 01/M06 A3002 RMK AO2 T00091061
KPRG 151915Z AUTO 30012KT 10SM OVC035 00/M06 A3003 RMK AO2 T00021061
KPRG 151855Z AUTO 30015G22KT 10SM OVC035 00/M07 A3004 RMK AO2 T00001066
KPRG 151835Z AUTO 30014G20KT 10SM OVC035 00/M06 A3004 RMK AO2 T00011061
KPRG 151815Z AUTO 29014G20KT 10SM BKN033 OVC039 01/M06 A3004 RMK AO2 T00081060
KPRG 151755Z AUTO 28013KT 10SM BKN028 BKN034 OVC045 00/M06 A3005 RMK AO2 T00041056 10005 21048
KPRG 151735Z AUTO 28012G17KT 10SM BKN026 BKN036 OVC047 00/M05 A3005 RMK AO2 T00011055
KPRG 151715Z AUTO 27015KT 10SM SCT024 SCT035 OVC047 00/M05 A3006 RMK AO2 T00001051
KPRG 151655Z AUTO 26013KT 10SM SCT022 BKN030 OVC045 00/M05 A3005 RMK AO2 T10051048
KPRG 151635Z AUTO 26012KT 10SM BKN024 OVC029 M01/M05 A3006 RMK AO2 T10071050
KPRG 151615Z AUTO 27013KT 10SM OVC024 M01/M05 A3007 RMK AO2 T10081051
KPRG 151555Z AUTO 25012G16KT 10SM BKN026 BKN035 OVC045 M01/M05 A3006 RMK AO2 T10111052
KPRG 151535Z AUTO 25011KT 10SM SCT023 OVC032 M01/M05 A3005 RMK AO2 T10151054
KPRG 151515Z AUTO 24010KT 10SM OVC030 M02/M06 A3005 RMK AO2 T10211056
KPRG 151455Z AUTO 24009KT 10SM OVC030 M02/M06 A3005 RMK AO2 T10251059
KPRG 151435Z AUTO 23011KT 10SM OVC030 M02/M06 A3005 RMK AO2 T10251060
KPRG 151415Z AUTO 23011KT 10SM OVC030 M03/M06 A3004 RMK AO2 T10281062
KPRG 151355Z AUTO 24008KT 10SM OVC030 M03/M06 A3004 RMK AO2 T10321063
KPRG 151335Z AUTO 23007KT 10SM BKN030 OVC047 M03/M06 A3004 RMK AO2 T10351063
KPRG 151315Z AUTO 23007KT 10SM SCT030 OVC049 M04/M06 A3005 RMK AO2 T10371065
KPRG 151255Z AUTO 23007KT 10SM SCT030 OVC049 M04/M07 A3005 RMK AO2 T10401066
KPRG 151235Z AUTO 24007KT 10SM OVC047 M04/M07 A3005 RMK AO2 T10411067
KPRG 151215Z AUTO 21007KT 10SM SCT027 BKN045 M05/M07 A3004 RMK AO2 T10471071
KPRG 151155Z AUTO 24007KT 10SM OVC027 M04/M07 A3005 RMK AO2 T10431070 11035 21055
KPRG 151135Z AUTO 24005KT 10SM OVC031 M04/M07 A3005 RMK AO2 T10401070
KPRG 151115Z AUTO 25007KT 10SM OVC033 M04/M07 A3005 RMK AO2 T10421071
KPRG 151055Z AUTO 25007KT 10SM OVC031 M04/M07 A3005 RMK AO2 T10401068
KPRG 151035Z AUTO 23006KT 10SM OVC031 M04/M07 A3005 RMK AO2 T10371068
KPRG 151015Z AUTO 25006KT 10SM OVC031 M04/M07 A3005 RMK AO2 T10371070
KPRG 150955Z AUTO 25006KT 10SM OVC031 M04/M07 A3005 RMK AO2 T10371070
KPRG 150935Z AUTO 25005KT 10SM OVC031 M04/M07 A3006 RMK AO2 T10381071
KPRG 150915Z AUTO 25006KT 10SM OVC033 M04/M07 A3006 RMK AO2 T10401070
KPRG 150855Z AUTO 24005KT 10SM OVC033 M04/M07 A3006 RMK AO2 T10411073
KPRG 150835Z AUTO 24005KT 10SM OVC033 M05/M07 A3006 RMK AO2 T10481075
KPRG 150815Z AUTO 25005KT 10SM OVC035 M05/M08 A3006 RMK AO2 T10491077
KPRG 150755Z AUTO 25005KT 10SM BKN035 M05/M08 A3006 RMK AO2 T10531080
KPRG 150730Z AUTO 24004KT 10SM CLR M05/M08 A3006 RMK AO2 T10511079
KPRG 150710Z AUTO 25003KT 10SM CLR M05/M08 A3006 RMK AO2 T10461076
KPRG 150655Z AUTO 26004KT 10SM CLR M05/M08 A3006 RMK AO2 T10461077